Time;durP1;ratioP1;P1;durP2;ratioP2;P2;SDS_P1;SDS_P2;PMS_P1;PMS_P2;Temp;Humidity;BMP_temperature;BMP_pressure;BME280_temperature;BME280_humidity;BME280_pressure;Samples;Min_cycle;Max_cycle;Signal;HPM_P1;HPM_P2
2022/02/20 00:02:18;;;;;;;1.30;0.40;;;;;;;2.36;100.00;99710.22;108468;1273;74512;-79
2022/02/20 00:04:45;;;;;;;1.30;0.60;;;;;;;2.36;100.00;99708.24;108489;1271;72356;-75
2022/02/20 00:07:13;;;;;;;1.40;0.90;;;;;;;2.38;100.00;99702.64;108450;1273;72673;-76
2022/02/20 00:09:41;;;;;;;2.00;0.60;;;;;;;2.40;100.00;99698.67;108362;1273;60882;-75
2022/02/20 00:12:08;;;;;;;0.90;0.40;;;;;;;2.43;100.00;99694.33;108440;1272;59629;-76
2022/02/20 00:14:34;;;;;;;1.30;0.80;;;;;;;2.45;100.00;99696.02;108522;1273;75705;-77
2022/02/20 00:17:01;;;;;;;3.90;1.30;;;;;;;2.49;100.00;99684.91;108485;1271;71144;-75
2022/02/20 00:19:27;;;;;;;1.80;0.60;;;;;;;2.50;100.00;99684.08;108375;1273;73967;-74
2022/02/20 00:21:54;;;;;;;2.30;0.60;;;;;;;2.52;100.00;99683.08;108448;1273;59342;-76
2022/02/20 00:24:20;;;;;;;1.50;0.70;;;;;;;2.53;100.00;99693.73;108448;1271;59073;-76
2022/02/20 00:26:47;;;;;;;1.00;0.60;;;;;;;2.56;100.00;99683.88;108356;1273;59085;-76
2022/02/20 00:29:13;;;;;;;1.30;0.40;;;;;;;2.57;100.00;99682.66;108446;1273;59107;-76
2022/02/20 00:31:40;;;;;;;0.70;0.30;;;;;;;2.58;100.00;99684.55;108465;1272;59639;-77
2022/02/20 00:34:06;;;;;;;0.10;0.10;;;;;;;2.59;100.00;99688.95;108516;1271;59249;-74
2022/02/20 00:36:32;;;;;;;1.10;0.40;;;;;;;2.60;100.00;99691.19;108509;1272;59621;-76
2022/02/20 00:38:59;;;;;;;1.00;0.50;;;;;;;2.60;100.00;99687.66;108443;1271;59491;-77
2022/02/20 00:41:25;;;;;;;0.70;0.50;;;;;;;2.60;100.00;99690.11;108484;1273;59229;-76
2022/02/20 00:43:52;;;;;;;1.50;0.80;;;;;;;2.60;100.00;99690.64;108451;1271;59325;-77
2022/02/20 00:46:18;;;;;;;0.90;0.40;;;;;;;2.60;100.00;99685.52;108388;1273;59527;-77
2022/02/20 00:48:45;;;;;;;0.80;0.30;;;;;;;2.61;100.00;99692.30;108453;1271;60094;-75
2022/02/20 00:51:11;;;;;;;1.60;0.30;;;;;;;2.61;100.00;99689.14;108466;1273;59141;-76
2022/02/20 00:53:38;;;;;;;1.70;0.40;;;;;;;2.60;100.00;99696.17;108485;1271;59213;-77
2022/02/20 00:56:04;;;;;;;0.60;0.40;;;;;;;2.60;100.00;99699.50;108399;1273;59392;-75
2022/02/20 00:58:32;;;;;;;0.70;0.30;;;;;;;2.60;100.00;99701.30;108457;1271;59106;-75
2022/02/20 01:00:58;;;;;;;0.40;0.30;;;;;;;2.60;100.00;99700.05;108365;1273;61859;-75
2022/02/20 01:03:25;;;;;;;0.90;0.40;;;;;;;2.60;100.00;99704.23;108504;1272;75751;-77
2022/02/20 01:05:53;;;;;;;1.40;0.60;;;;;;;2.61;100.00;99709.86;108493;1273;59749;-77
2022/02/20 01:08:19;;;;;;;1.60;0.60;;;;;;;2.63;100.00;99718.55;108466;1271;74019;-77
2022/02/20 01:10:46;;;;;;;1.30;0.60;;;;;;;2.65;100.00;99722.04;108492;1273;59198;-77
2022/02/20 01:13:13;;;;;;;2.40;0.50;;;;;;;2.68;100.00;99715.39;108480;1271;60550;-75
2022/02/20 01:15:40;;;;;;;0.60;0.30;;;;;;;2.71;100.00;99716.83;108489;1273;75999;-77
2022/02/20 01:18:07;;;;;;;1.20;0.50;;;;;;;2.75;100.00;99714.48;108439;1273;72694;-77
2022/02/20 01:20:34;;;;;;;0.40;0.30;;;;;;;2.80;100.00;99712.08;108496;1272;73965;-76
2022/02/20 01:23:00;;;;;;;1.60;0.60;;;;;;;2.86;100.00;99708.90;108455;1271;60451;-74
2022/02/20 01:25:27;;;;;;;0.90;0.40;;;;;;;2.92;100.00;99707.30;108500;1272;61840;-76
2022/02/20 01:27:54;;;;;;;0.70;0.50;;;;;;;2.97;100.00;99706.96;108463;1271;59144;-77
2022/02/20 01:30:21;;;;;;;0.90;0.40;;;;;;;3.01;100.00;99711.23;108492;1273;71238;-77
2022/02/20 01:32:47;;;;;;;0.90;0.60;;;;;;;3.06;100.00;99711.33;108461;1273;71909;-77
2022/02/20 01:35:15;;;;;;;1.00;0.30;;;;;;;3.11;100.00;99706.09;108524;1273;59158;-77
2022/02/20 01:37:42;;;;;;;1.20;0.50;;;;;;;3.15;100.00;99701.16;108502;1273;60599;-75
2022/02/20 01:40:09;;;;;;;0.50;0.30;;;;;;;3.19;100.00;99702.83;108418;1273;59262;-75
2022/02/20 01:42:35;;;;;;;0.80;0.50;;;;;;;3.23;100.00;99703.52;108468;1273;71477;-75
2022/02/20 01:45:02;;;;;;;0.70;0.40;;;;;;;3.27;100.00;99709.63;108502;1272;59183;-77
2022/02/20 01:47:29;;;;;;;0.70;0.50;;;;;;;3.30;100.00;99711.26;108439;1271;62345;-77
2022/02/20 01:49:56;;;;;;;0.70;0.50;;;;;;;3.33;100.00;99709.59;108437;1273;60651;-75
2022/02/20 01:52:22;;;;;;;0.80;0.60;;;;;;;3.36;100.00;99717.66;108471;1271;76036;-77
2022/02/20 01:54:51;;;;;;;1.70;0.40;;;;;;;3.39;100.00;99719.39;108551;1274;71500;-76
2022/02/20 01:57:18;;;;;;;1.00;0.60;;;;;;;3.41;100.00;99722.15;108495;1272;74054;-76
2022/02/20 01:59:45;;;;;;;0.90;0.60;;;;;;;3.43;100.00;99725.98;108430;1273;62004;-77
2022/02/20 02:02:12;;;;;;;0.70;0.60;;;;;;;3.47;100.00;99728.04;108447;1272;61974;-75
2022/02/20 02:04:39;;;;;;;1.50;0.80;;;;;;;3.50;100.00;99727.27;108403;1273;75780;-76
2022/02/20 02:07:05;;;;;;;0.80;0.60;;;;;;;3.53;100.00;99726.05;108395;1273;59328;-75
2022/02/20 02:09:32;;;;;;;1.30;0.70;;;;;;;3.56;100.00;99725.73;108528;1273;59704;-76
2022/02/20 02:11:58;;;;;;;3.90;1.20;;;;;;;3.60;100.00;99730.60;108424;1273;62231;-75
2022/02/20 02:14:25;;;;;;;2.20;1.20;;;;;;;3.62;100.00;99736.86;108400;1272;59125;-77
2022/02/20 02:16:51;;;;;;;2.00;1.10;;;;;;;3.66;100.00;99742.01;108473;1271;59725;-75
2022/02/20 02:19:18;;;;;;;1.50;1.20;;;;;;;3.72;100.00;99741.84;108456;1271;59330;-77
2022/02/20 02:21:44;;;;;;;2.80;1.30;;;;;;;3.77;100.00;99748.89;108360;1273;59248;-77
2022/02/20 02:24:11;;;;;;;2.30;1.30;;;;;;;3.80;100.00;99747.97;108493;1271;58884;-75
2022/02/20 02:26:38;;;;;;;2.60;1.90;;;;;;;3.86;100.00;99753.88;108485;1272;60432;-75
2022/02/20 02:29:04;;;;;;;2.50;1.20;;;;;;;3.92;100.00;99762.35;108355;1273;74941;-76
2022/02/20 02:31:31;;;;;;;5.40;2.10;;;;;;;3.98;100.00;99764.06;108502;1273;71503;-76
2022/02/20 02:33:59;;;;;;;3.60;1.80;;;;;;;4.03;100.00;99765.98;108399;1273;59296;-75
2022/02/20 02:36:26;;;;;;;4.00;2.30;;;;;;;4.10;100.00;99770.58;108467;1273;61568;-76
2022/02/20 02:38:53;;;;;;;2.90;2.10;;;;;;;4.15;100.00;99771.09;108443;1271;60221;-75
2022/02/20 02:41:19;;;;;;;2.60;1.80;;;;;;;4.19;100.00;99770.98;108500;1273;60602;-76
2022/02/20 02:43:46;;;;;;;4.20;2.20;;;;;;;4.22;100.00;99778.25;108482;1272;59090;-77
2022/02/20 02:46:12;;;;;;;5.90;2.90;;;;;;;4.24;100.00;99775.36;108524;1273;58974;-77
2022/02/20 02:48:48;;;;;;;4.20;2.50;;;;;;;4.26;100.00;99780.41;108385;1272;60768;-77
2022/02/20 02:51:15;;;;;;;5.40;3.30;;;;;;;4.29;100.00;99790.10;108448;1273;60627;-78
2022/02/20 02:53:41;;;;;;;4.10;2.40;;;;;;;4.32;100.00;99791.89;108396;1273;74863;-77
2022/02/20 02:56:08;;;;;;;5.90;3.50;;;;;;;4.34;100.00;99795.95;108403;1273;72367;-76
2022/02/20 02:58:34;;;;;;;4.40;2.50;;;;;;;4.36;100.00;99802.15;108414;1271;59633;-75
2022/02/20 03:01:00;;;;;;;3.50;2.10;;;;;;;4.38;100.00;99805.36;108497;1273;59321;-74
2022/02/20 03:03:27;;;;;;;5.20;2.50;;;;;;;4.37;100.00;99810.98;108394;1273;59348;-75
2022/02/20 03:05:57;;;;;;;5.00;2.10;;;;;;;4.37;100.00;99826.89;108469;1273;74967;-78
2022/02/20 03:08:25;;;;;;;4.40;3.00;;;;;;;4.38;100.00;99835.09;108504;1273;71151;-78
2022/02/20 03:10:52;;;;;;;3.10;2.30;;;;;;;4.37;100.00;99841.70;108503;1271;74126;-77
2022/02/20 03:13:19;;;;;;;5.00;2.50;;;;;;;4.34;100.00;99857.19;108444;1271;61212;-76
2022/02/20 03:15:45;;;;;;;3.70;2.10;;;;;;;4.31;100.00;99851.35;108483;1272;61522;-77
2022/02/20 03:18:12;;;;;;;2.80;2.00;;;;;;;4.28;100.00;99854.48;108395;1273;74977;-78
2022/02/20 03:20:39;;;;;;;3.40;2.20;;;;;;;4.25;100.00;99855.15;108431;1273;72204;-79
2022/02/20 03:23:05;;;;;;;3.30;2.00;;;;;;;4.23;100.00;99862.11;108366;1273;59216;-76
2022/02/20 03:25:32;;;;;;;3.90;2.20;;;;;;;4.22;100.00;99872.80;108328;1273;59162;-78
2022/02/20 03:27:58;;;;;;;4.20;2.50;;;;;;;4.21;100.00;99869.83;108462;1273;58951;-79
2022/02/20 03:30:25;;;;;;;6.20;2.80;;;;;;;4.22;100.00;99873.15;108548;1273;59712;-79
2022/02/20 03:32:52;;;;;;;3.80;2.30;;;;;;;4.21;100.00;99881.63;108458;1273;73064;-77
2022/02/20 03:35:19;;;;;;;4.30;3.00;;;;;;;4.21;100.00;99884.77;108484;1273;74270;-77
2022/02/20 03:37:45;;;;;;;5.00;2.80;;;;;;;4.20;100.00;99896.24;108452;1273;60870;-78
2022/02/20 03:40:12;;;;;;;6.30;3.10;;;;;;;4.19;100.00;99898.76;108478;1273;59356;-80
2022/02/20 03:42:39;;;;;;;6.20;2.50;;;;;;;4.18;100.00;99900.27;108444;1273;76102;-78
2022/02/20 03:45:07;;;;;;;4.50;2.60;;;;;;;4.17;100.00;99907.77;108501;1273;59124;-78
2022/02/20 03:47:33;;;;;;;4.20;2.30;;;;;;;4.16;100.00;99921.34;108454;1273;73664;-76
2022/02/20 03:50:00;;;;;;;4.70;2.00;;;;;;;4.17;100.00;99928.17;108490;1273;61173;-77
2022/02/20 03:52:27;;;;;;;5.00;2.60;;;;;;;4.17;100.00;99931.86;108328;1273;60762;-77
2022/02/20 03:54:53;;;;;;;3.20;1.80;;;;;;;4.15;100.00;99939.74;108492;1272;59192;-80
2022/02/20 03:57:20;;;;;;;3.20;2.10;;;;;;;4.15;100.00;99945.97;108470;1271;72637;-77
2022/02/20 03:59:47;;;;;;;3.60;1.90;;;;;;;4.13;100.00;99944.84;108479;1273;59205;-77
2022/02/20 04:02:13;;;;;;;3.70;2.40;;;;;;;4.11;100.00;99959.39;108446;1273;59083;-77
2022/02/20 04:04:39;;;;;;;4.00;2.30;;;;;;;4.09;100.00;99966.07;108466;1273;59967;-78
2022/02/20 04:07:06;;;;;;;5.40;2.60;;;;;;;4.07;100.00;99974.42;108400;1273;59859;-78
2022/02/20 04:09:32;;;;;;;4.00;2.20;;;;;;;4.05;100.00;99978.86;108448;1273;59083;-78
2022/02/20 04:11:59;;;;;;;5.40;3.00;;;;;;;4.03;100.00;99985.34;108390;1273;59240;-79
2022/02/20 04:14:25;;;;;;;8.50;4.00;;;;;;;4.01;100.00;99986.77;108401;1273;59235;-78
2022/02/20 04:16:52;;;;;;;4.40;2.90;;;;;;;4.01;100.00;99994.17;108473;1273;59080;-77
2022/02/20 04:19:18;;;;;;;6.10;3.30;;;;;;;3.98;100.00;100001.42;108475;1271;59276;-79
2022/02/20 04:21:44;;;;;;;7.00;3.10;;;;;;;3.99;100.00;100011.19;108440;1271;59514;-78
2022/02/20 04:24:11;;;;;;;7.20;3.50;;;;;;;3.99;100.00;100012.69;108424;1273;59190;-78
2022/02/20 04:26:38;;;;;;;7.00;4.50;;;;;;;3.99;100.00;100025.45;108404;1272;59471;-79
2022/02/20 04:29:04;;;;;;;6.10;3.50;;;;;;;3.99;100.00;100037.02;108505;1274;59478;-79
2022/02/20 04:31:32;;;;;;;6.20;3.60;;;;;;;4.00;100.00;100031.52;108441;1273;58491;-79
2022/02/20 04:33:58;;;;;;;9.20;4.80;;;;;;;4.01;100.00;100037.21;108466;1273;72362;-79
2022/02/20 04:36:25;;;;;;;7.30;3.90;;;;;;;4.01;100.00;100043.52;108465;1273;72784;-78
2022/02/20 04:38:51;;;;;;;8.90;5.50;;;;;;;4.01;100.00;100047.52;108444;1273;59267;-79
2022/02/20 04:41:18;;;;;;;8.10;4.60;;;;;;;4.00;100.00;100061.45;108412;1273;59215;-78
2022/02/20 04:43:44;;;;;;;8.00;5.50;;;;;;;4.00;100.00;100060.38;108463;1273;59126;-79
2022/02/20 04:46:11;;;;;;;6.70;4.30;;;;;;;4.01;100.00;100069.23;108389;1273;59217;-76
2022/02/20 04:48:37;;;;;;;5.80;3.30;;;;;;;4.01;100.00;100076.21;108363;1273;59057;-79
2022/02/20 04:51:06;;;;;;;5.40;3.30;;;;;;;4.00;100.00;100080.69;108438;1273;59243;-79
2022/02/20 04:53:32;;;;;;;8.20;5.20;;;;;;;3.99;100.00;100078.83;108406;1273;60721;-79
2022/02/20 04:55:59;;;;;;;8.50;4.20;;;;;;;3.97;100.00;100084.93;108374;1273;76124;-77
2022/02/20 04:58:26;;;;;;;6.90;4.50;;;;;;;3.96;100.00;100086.80;108392;1273;72265;-80
2022/02/20 05:00:52;;;;;;;9.40;5.40;;;;;;;3.95;100.00;100087.30;108344;1273;59276;-78
2022/02/20 05:03:19;;;;;;;7.60;4.20;;;;;;;3.93;100.00;100090.66;108330;1273;59374;-78
2022/02/20 05:05:46;;;;;;;5.40;3.40;;;;;;;3.89;100.00;100086.64;108464;1273;59068;-79
2022/02/20 05:08:12;;;;;;;8.00;4.60;;;;;;;3.84;100.00;100089.77;108403;1273;75092;-78
2022/02/20 05:10:38;;;;;;;5.50;3.40;;;;;;;3.78;100.00;100097.64;108430;1273;59855;-79
2022/02/20 05:13:05;;;;;;;8.70;4.80;;;;;;;3.74;100.00;100106.58;108468;1273;73313;-78
2022/02/20 05:15:32;;;;;;;6.90;3.90;;;;;;;3.69;100.00;100107.05;108450;1273;59155;-79
2022/02/20 05:17:58;;;;;;;6.10;3.50;;;;;;;3.65;99.63;100108.30;108394;1274;59204;-78
2022/02/20 05:20:25;;;;;;;5.30;3.30;;;;;;;3.61;99.43;100116.25;108350;1273;74954;-80
2022/02/20 05:22:51;;;;;;;4.70;2.90;;;;;;;3.56;98.77;100103.23;108383;1273;71348;-79
2022/02/20 05:25:18;;;;;;;6.30;3.50;;;;;;;3.51;99.05;100103.34;108452;1273;59327;-79
2022/02/20 05:27:45;;;;;;;5.60;3.80;;;;;;;3.47;99.09;100105.64;108427;1273;61429;-79
2022/02/20 05:30:12;;;;;;;5.80;3.10;;;;;;;3.44;99.72;100115.05;108469;1272;60346;-79
2022/02/20 05:32:39;;;;;;;5.00;2.70;;;;;;;3.40;99.23;100110.98;108356;1273;76236;-78
2022/02/20 05:35:09;;;;;;;5.80;3.00;;;;;;;3.37;99.90;100107.92;108478;1273;60009;-79
2022/02/20 05:37:42;;;;;;;6.70;3.60;;;;;;;3.35;100.00;100104.33;108434;1273;74130;-78
2022/02/20 05:40:12;;;;;;;5.60;2.90;;;;;;;3.32;100.00;100103.87;108413;1273;61163;-77
2022/02/20 05:42:38;;;;;;;6.00;3.50;;;;;;;3.31;100.00;100109.24;108455;1273;61603;-79
2022/02/20 05:45:06;;;;;;;7.30;4.50;;;;;;;3.30;100.00;100110.94;108549;1273;75976;-78
2022/02/20 05:47:33;;;;;;;9.00;4.10;;;;;;;3.31;100.00;100111.87;108445;1273;71335;-77
2022/02/20 05:50:00;;;;;;;6.90;4.20;;;;;;;3.31;100.00;100114.63;108333;1273;73985;-79
2022/02/20 05:52:28;;;;;;;8.70;5.10;;;;;;;3.32;100.00;100121.37;108482;1273;61175;-78
2022/02/20 05:54:54;;;;;;;6.00;3.80;;;;;;;3.31;100.00;100118.80;108384;1273;60444;-78
2022/02/20 05:57:21;;;;;;;7.80;4.70;;;;;;;3.31;100.00;100115.13;108446;1273;74892;-79
2022/02/20 05:59:48;;;;;;;8.10;4.80;;;;;;;3.32;100.00;100117.52;108517;1273;59362;-77
2022/02/20 06:02:15;;;;;;;6.40;3.30;;;;;;;3.32;100.00;100124.05;108422;1273;71970;-79
2022/02/20 06:04:41;;;;;;;6.50;3.80;;;;;;;3.31;100.00;100131.95;108427;1272;61384;-79
2022/02/20 06:07:09;;;;;;;8.00;5.20;;;;;;;3.32;100.00;100135.05;108455;1271;59658;-78
2022/02/20 06:09:36;;;;;;;9.40;5.80;;;;;;;3.32;100.00;100138.50;108487;1273;76369;-77
2022/02/20 06:12:03;;;;;;;9.80;5.80;;;;;;;3.33;100.00;100140.71;108370;1273;72518;-77
2022/02/20 06:14:30;;;;;;;8.50;4.80;;;;;;;3.32;100.00;100143.73;108466;1272;73016;-79
2022/02/20 06:16:56;;;;;;;9.90;5.80;;;;;;;3.32;100.00;100147.92;108469;1271;58451;-79
2022/02/20 06:19:22;;;;;;;10.10;5.30;;;;;;;3.32;100.00;100145.52;108430;1273;60238;-79
2022/02/20 06:21:49;;;;;;;9.50;5.80;;;;;;;3.32;100.00;100149.35;108417;1273;59145;-79
2022/02/20 06:24:15;;;;;;;8.40;4.70;;;;;;;3.32;100.00;100151.80;108455;1273;59579;-79
2022/02/20 06:26:42;;;;;;;6.80;4.20;;;;;;;3.32;100.00;100151.09;108465;1271;59617;-78
2022/02/20 06:29:08;;;;;;;9.40;4.90;;;;;;;3.32;100.00;100148.66;108490;1273;59181;-79
2022/02/20 06:31:35;;;;;;;9.30;5.80;;;;;;;3.31;100.00;100143.63;108471;1271;59168;-79
2022/02/20 06:34:02;;;;;;;10.40;4.80;;;;;;;3.32;100.00;100141.84;108409;1273;59287;-77
2022/02/20 06:36:28;;;;;;;8.20;4.50;;;;;;;3.31;100.00;100138.05;108513;1271;71203;-78
2022/02/20 06:38:55;;;;;;;9.80;5.30;;;;;;;3.31;100.00;100136.48;108400;1273;59126;-78
2022/02/20 06:41:27;;;;;;;8.40;4.50;;;;;;;3.31;100.00;100132.46;108418;1273;61473;-78
2022/02/20 06:43:53;;;;;;;8.10;4.00;;;;;;;3.31;100.00;100136.35;108433;1273;59628;-78
2022/02/20 06:46:20;;;;;;;9.80;5.50;;;;;;;3.31;100.00;100129.31;108409;1274;59823;-79
2022/02/20 06:48:46;;;;;;;9.60;6.00;;;;;;;3.32;100.00;100130.46;108385;1274;71410;-79
2022/02/20 06:51:13;;;;;;;13.60;6.40;;;;;;;3.32;100.00;100131.14;108405;1273;60264;-78
2022/02/20 06:53:39;;;;;;;8.80;5.60;;;;;;;3.34;100.00;100133.11;108444;1272;59088;-78
2022/02/20 06:56:06;;;;;;;9.90;5.50;;;;;;;3.34;100.00;100133.39;108330;1274;59360;-78
2022/02/20 06:58:32;;;;;;;11.60;5.40;;;;;;;3.35;100.00;100129.85;108451;1273;59714;-78
2022/02/20 07:00:59;;;;;;;10.80;5.20;;;;;;;3.35;100.00;100133.30;108229;1274;71505;-79
2022/02/20 07:03:26;;;;;;;10.90;6.00;;;;;;;3.36;100.00;100133.08;108443;1273;72911;-79
2022/02/20 07:05:52;;;;;;;12.00;6.60;;;;;;;3.38;100.00;100131.84;108335;1274;60453;-79
2022/02/20 07:08:19;;;;;;;9.60;5.30;;;;;;;3.41;100.00;100132.02;108358;1273;59266;-79
2022/02/20 07:10:45;;;;;;;12.60;6.30;;;;;;;3.44;100.00;100127.59;108453;1273;75037;-79
2022/02/20 07:13:12;;;;;;;9.20;5.30;;;;;;;3.47;100.00;100127.50;108270;1274;70467;-79
2022/02/20 07:15:38;;;;;;;7.80;4.20;;;;;;;3.51;100.00;100131.00;108308;1274;59832;-78
2022/02/20 07:18:05;;;;;;;7.10;4.20;;;;;;;3.54;100.00;100128.36;108397;1273;59173;-78
2022/02/20 07:20:31;;;;;;;7.50;3.60;;;;;;;3.61;100.00;100132.70;108452;1273;59140;-79
2022/02/20 07:22:58;;;;;;;9.00;4.90;;;;;;;3.66;100.00;100129.73;108375;1274;59810;-80
2022/02/20 07:25:25;;;;;;;5.80;3.30;;;;;;;3.71;99.23;100131.06;108410;1273;59150;-80
2022/02/20 07:27:54;;;;;;;5.80;3.80;;;;;;;3.74;97.44;100130.96;108390;1274;73104;-78
2022/02/20 07:30:28;;;;;;;7.70;3.10;;;;;;;3.76;95.86;100123.03;108451;1273;62159;-80
2022/02/20 07:32:56;;;;;;;5.50;2.30;;;;;;;3.77;94.45;100122.45;108252;1274;60385;-80
2022/02/20 07:35:23;;;;;;;6.00;3.00;;;;;;;3.78;92.25;100136.00;108410;1274;75996;-79
2022/02/20 07:37:49;;;;;;;4.20;2.40;;;;;;;3.79;90.63;100121.55;108463;1273;70360;-79
2022/02/20 07:40:16;;;;;;;4.00;2.80;;;;;;;3.80;90.11;100128.79;108157;1274;333746;-79
2022/02/20 07:42:43;;;;;;;5.70;2.30;;;;;;;3.81;90.44;100125.88;108411;1273;61622;-80
2022/02/20 07:45:10;;;;;;;4.00;2.20;;;;;;;3.80;90.24;100127.37;108343;1274;60378;-78
2022/02/20 07:47:52;;;;;;;4.00;2.10;;;;;;;3.79;89.92;100123.13;108474;1273;75933;-77
2022/02/20 07:50:21;;;;;;;6.50;2.60;;;;;;;3.78;90.70;100113.92;108394;1274;71926;-78
2022/02/20 07:52:48;;;;;;;6.10;3.20;;;;;;;3.77;91.18;100115.92;108423;1273;72908;-77
2022/02/20 07:55:16;;;;;;;5.90;2.80;;;;;;;3.77;90.87;100109.17;108522;1272;61166;-78
2022/02/20 07:57:46;;;;;;;5.90;2.90;;;;;;;3.76;90.62;100113.03;108408;1274;60558;-79
2022/02/20 08:00:15;;;;;;;5.00;2.90;;;;;;;3.77;90.40;100100.36;108462;1273;76807;-79
2022/02/20 08:02:42;;;;;;;4.60;2.90;;;;;;;3.79;90.06;100094.64;108403;1273;70011;-78
2022/02/20 08:05:09;;;;;;;4.20;2.80;;;;;;;3.80;90.03;100092.96;108468;1273;72929;-78
2022/02/20 08:07:36;;;;;;;5.60;3.00;;;;;;;3.80;89.53;100087.99;108458;1274;62546;-77
2022/02/20 08:10:04;;;;;;;6.50;2.70;;;;;;;3.82;89.47;100083.05;108490;1272;59004;-78
2022/02/20 08:12:30;;;;;;;4.50;2.50;;;;;;;3.83;89.74;100077.44;108477;1273;75898;-78
2022/02/20 08:14:57;;;;;;;8.70;3.50;;;;;;;3.83;89.38;100068.29;108399;1273;69998;-77
2022/02/20 08:17:24;;;;;;;9.60;2.90;;;;;;;3.84;90.08;100059.67;108262;1273;72799;-77
2022/02/20 08:19:51;;;;;;;6.80;3.70;;;;;;;3.84;89.84;100061.05;108452;1273;61588;-77
2022/02/20 08:22:22;;;;;;;6.90;4.00;;;;;;;3.86;90.21;100054.90;108317;1273;60682;-78
2022/02/20 08:24:49;;;;;;;5.80;3.90;;;;;;;3.88;90.61;100051.55;108275;1273;75044;-79
2022/02/20 08:27:16;;;;;;;7.10;4.10;;;;;;;3.89;90.62;100052.52;108427;1273;72234;-76
2022/02/20 08:29:42;;;;;;;5.40;2.80;;;;;;;3.89;90.96;100048.89;108466;1273;73974;-78
2022/02/20 08:32:09;;;;;;;7.10;3.70;;;;;;;3.87;91.76;100043.05;108452;1272;63929;-77
2022/02/20 08:34:36;;;;;;;10.10;5.20;;;;;;;3.84;92.49;100037.98;108465;1272;60909;-77
2022/02/20 08:37:04;;;;;;;8.30;4.70;;;;;;;3.80;92.84;100029.25;108490;1273;75598;-78
2022/02/20 08:39:31;;;;;;;13.00;4.40;;;;;;;3.75;93.73;100023.14;108400;1273;70500;-79
2022/02/20 08:41:58;;;;;;;7.00;3.30;;;;;;;3.71;94.27;100016.48;108285;1273;73061;-78
2022/02/20 08:44:24;;;;;;;9.40;4.20;;;;;;;3.68;94.75;100001.70;108418;1273;59256;-77
2022/02/20 08:46:51;;;;;;;6.00;4.00;;;;;;;3.64;95.43;99992.23;108380;1273;59121;-77
2022/02/20 08:49:17;;;;;;;12.40;4.90;;;;;;;3.62;96.10;99984.83;108435;1273;59067;-77
2022/02/20 08:51:44;;;;;;;7.20;4.20;;;;;;;3.59;96.29;99981.95;108452;1273;59840;-77
2022/02/20 08:54:10;;;;;;;9.30;4.30;;;;;;;3.56;96.71;99977.29;108383;1272;59214;-76
2022/02/20 08:56:37;;;;;;;8.80;4.20;;;;;;;3.55;97.10;99965.85;108300;1274;59353;-77
2022/02/20 08:59:04;;;;;;;9.70;5.00;;;;;;;3.56;97.78;99963.55;108436;1273;59503;-77
2022/02/20 09:01:31;;;;;;;10.80;5.60;;;;;;;3.55;98.10;99954.55;108430;1273;74045;-78
2022/02/20 09:04:02;;;;;;;9.20;3.80;;;;;;;3.56;98.27;99943.39;108427;1273;59119;-78
2022/02/20 09:06:30;;;;;;;6.20;3.70;;;;;;;3.58;98.61;99935.38;108437;1273;72946;-77
2022/02/20 09:08:57;;;;;;;10.40;5.70;;;;;;;3.57;98.99;99934.23;108441;1273;61484;-78
2022/02/20 09:11:25;;;;;;;11.40;5.30;;;;;;;3.57;99.43;99924.63;108451;1273;60803;-78
2022/02/20 09:13:51;;;;;;;13.90;4.70;;;;;;;3.58;99.94;99914.77;108351;1273;76025;-79
2022/02/20 09:16:18;;;;;;;14.50;5.10;;;;;;;3.59;100.00;99907.09;108467;1273;59252;-78
2022/02/20 09:18:45;;;;;;;11.40;4.50;;;;;;;3.61;100.00;99901.66;108426;1273;72939;-77
2022/02/20 09:21:13;;;;;;;7.70;3.90;;;;;;;3.63;100.00;99888.90;108450;1273;61291;-78
2022/02/20 09:23:40;;;;;;;8.40;3.80;;;;;;;3.64;100.00;99882.98;108426;1273;64236;-78
2022/02/20 09:26:06;;;;;;;7.50;4.60;;;;;;;3.67;100.00;99866.30;108445;1273;76001;-77
2022/02/20 09:28:34;;;;;;;11.80;5.60;;;;;;;3.69;100.00;99858.21;108280;1273;72463;-77
2022/02/20 09:31:01;;;;;;;6.00;3.20;;;;;;;3.72;100.00;99851.29;108375;1273;72681;-77
2022/02/20 09:33:27;;;;;;;9.00;4.20;;;;;;;3.73;100.00;99841.75;108443;1273;62626;-78
2022/02/20 09:35:54;;;;;;;3.30;2.10;;;;;;;3.76;100.00;99836.97;108483;1273;59113;-77
2022/02/20 09:38:20;;;;;;;9.30;3.50;;;;;;;3.77;100.00;99825.65;108399;1271;59161;-77
2022/02/20 09:40:47;;;;;;;5.70;3.90;;;;;;;3.79;100.00;99819.17;108473;1271;59296;-76
2022/02/20 09:43:15;;;;;;;5.40;2.70;;;;;;;3.81;100.00;99811.39;108389;1271;72909;-78
2022/02/20 09:45:47;;;;;;;10.70;3.70;;;;;;;3.83;100.00;99812.10;108384;1273;61416;-83
2022/02/20 09:48:15;;;;;;;5.80;3.10;;;;;;;3.85;100.00;99800.34;108433;1273;60526;-82
2022/02/20 09:50:43;;;;;;;6.40;3.20;;;;;;;3.88;100.00;99801.44;108478;1273;76099;-81
2022/02/20 09:53:10;;;;;;;7.10;2.50;;;;;;;3.92;100.00;99802.48;108468;1273;71263;-81
2022/02/20 09:55:37;;;;;;;7.30;3.10;;;;;;;3.93;100.00;99797.45;108486;1273;73135;-81
2022/02/20 09:58:03;;;;;;;7.20;3.30;;;;;;;3.95;100.00;99789.20;108447;1273;61285;-81
2022/02/20 10:00:37;;;;;;;3.80;2.30;;;;;;;3.97;100.00;99788.80;108475;1273;59020;-79
2022/02/20 10:03:03;;;;;;;6.10;3.20;;;;;;;4.00;100.00;99786.98;108405;1273;74821;-80
2022/02/20 10:05:30;;;;;;;10.80;3.40;;;;;;;4.02;100.00;99790.05;108458;1273;59398;-82
2022/02/20 10:07:56;;;;;;;5.20;2.20;;;;;;;4.03;100.00;99779.40;108312;1271;59708;-82
2022/02/20 10:10:25;;;;;;;5.80;2.00;;;;;;;4.05;100.00;99774.15;108407;1273;59025;-81
2022/02/20 10:12:57;;;;;;;6.10;1.80;;;;;;;4.07;100.00;99768.20;108448;1270;60400;-81
2022/02/20 10:15:25;;;;;;;9.20;3.90;;;;;;;4.10;100.00;99757.91;108393;1273;74804;-80
2022/02/20 10:18:08;;;;;;;5.70;2.20;;;;;;;4.13;100.00;99746.73;108423;1273;73142;-81
2022/02/20 10:20:34;;;;;;;8.40;3.00;;;;;;;4.17;100.00;99739.91;108356;1272;74240;-81
2022/02/20 10:23:05;;;;;;;7.50;2.30;;;;;;;4.20;100.00;99733.16;108476;1272;58992;-80
2022/02/20 10:25:31;;;;;;;6.90;3.30;;;;;;;4.24;100.00;99730.45;108414;1273;60907;-82
2022/02/20 10:27:58;;;;;;;6.90;2.50;;;;;;;4.29;100.00;99722.07;108366;1273;59743;-84
2022/02/20 10:30:27;;;;;;;4.70;2.30;;;;;;;4.36;100.00;99708.97;108420;1273;71089;-81
2022/02/20 10:33:10;;;;;;;7.90;2.50;;;;;;;4.43;100.00;99707.31;108405;1272;72993;-79
2022/02/20 10:35:43;;;;;;;4.60;2.30;;;;;;;4.52;100.00;99705.89;108382;1273;61790;-79
2022/02/20 10:38:12;;;;;;;8.10;2.20;;;;;;;4.61;100.00;99710.52;108362;1273;61427;-79
2022/02/20 10:40:41;;;;;;;6.60;2.70;;;;;;;4.69;100.00;99714.02;108416;1273;74855;-78
2022/02/20 10:43:22;;;;;;;3.80;1.90;;;;;;;4.77;100.00;99705.80;108426;1273;72797;-79
2022/02/20 10:45:49;;;;;;;6.40;2.30;;;;;;;4.86;100.00;99706.48;108403;1271;73598;-79
2022/02/20 10:48:19;;;;;;;8.30;2.70;;;;;;;4.92;100.00;99711.66;108460;1272;59990;-79
2022/02/20 10:50:57;;;;;;;2.30;1.60;;;;;;;4.97;100.00;99715.44;108342;1273;60714;-79
2022/02/20 10:53:32;;;;;;;3.90;1.90;;;;;;;5.04;100.00;99705.10;108421;1271;73905;-79
2022/02/20 10:56:01;;;;;;;4.50;1.60;;;;;;;5.11;100.00;99700.54;108409;1273;71108;-79
2022/02/20 10:58:30;;;;;;;2.70;1.60;;;;;;;5.18;100.00;99702.90;108338;1271;73027;-79
2022/02/20 11:00:59;;;;;;;3.30;1.60;;;;;;;5.25;100.00;99702.96;108409;1271;60448;-79
2022/02/20 11:03:28;;;;;;;4.70;1.50;;;;;;;5.34;100.00;99687.71;108250;1273;62076;-79
2022/02/20 11:05:57;;;;;;;3.30;1.20;;;;;;;5.42;100.00;99685.77;108443;1271;74342;-79
2022/02/20 11:08:25;;;;;;;2.80;2.40;;;;;;;5.52;100.00;99677.17;108337;1273;72800;-79
2022/02/20 11:10:53;;;;;;;2.10;1.20;;;;;;;5.61;100.00;99671.98;108429;1271;74034;-79
2022/02/20 11:13:21;;;;;;;3.80;1.00;;;;;;;5.69;100.00;99673.54;108396;1271;61270;-78
2022/02/20 11:15:54;;;;;;;2.80;1.00;;;;;;;5.76;100.00;99664.92;108373;1273;61781;-78
2022/02/20 11:18:24;;;;;;;2.70;1.40;;;;;;;5.82;100.00;99659.70;108352;1271;76037;-79
2022/02/20 11:20:52;;;;;;;2.30;1.40;;;;;;;5.89;100.00;99650.29;108434;1273;71443;-80
2022/02/20 11:23:24;;;;;;;1.90;1.00;;;;;;;5.95;100.00;99639.86;108385;1273;74011;-79